Time;durP1;ratioP1;P1;durP2;ratioP2;P2;SDS_P1;SDS_P2;PMS_P1;PMS_P2;Temp;Humidity;BMP_temperature;BMP_pressure;BME280_temperature;BME280_humidity;BME280_pressure;Samples;Min_cycle;Max_cycle;Signal;HPM_P1;HPM_P2
2023/11/17 00:00:54;;;;;;;6.70;4.57;;;;;;;;;;5861736;28;20041;-72
2023/11/17 00:03:45;;;;;;;7.97;4.53;;;;;;;;;;5862312;28;20041;-72
2023/11/17 00:06:36;;;;;;;8.73;4.80;;;;;;;;;;5862547;28;20053;-72
2023/11/17 00:09:26;;;;;;;13.05;6.28;;;;;;;;;;5862652;28;20045;-72
2023/11/17 00:12:18;;;;;;;11.52;6.18;;;;;;;;;;5862383;28;20052;-72
2023/11/17 00:15:12;;;;;;;9.63;6.28;;;;;;;;;;5862526;28;20056;-72
2023/11/17 00:18:03;;;;;;;7.18;4.57;;;;;;;;;;5862084;28;20041;-72
2023/11/17 00:20:54;;;;;;;19.15;5.75;;;;;;;;;;5862908;28;20203;-72
2023/11/17 00:23:45;;;;;;;8.95;3.90;;;;;;;;;;5862093;28;20055;-72
2023/11/17 00:26:36;;;;;;;8.73;5.25;;;;;;;;;;5862091;28;20107;-72
2023/11/17 00:29:27;;;;;;;8.38;4.50;;;;;;;;;;5862310;28;20049;-72
2023/11/17 00:32:17;;;;;;;10.05;6.90;;;;;;;;;;5862407;28;20068;-72
2023/11/17 00:35:09;;;;;;;5.90;4.38;;;;;;;;;;5881710;28;20549;-72
2023/11/17 00:38:00;;;;;;;7.15;5.88;;;;;;;;;;5866873;28;20152;-72
2023/11/17 00:40:51;;;;;;;3.90;3.35;;;;;;;;;;5866446;28;20144;-72
2023/11/17 00:43:42;;;;;;;5.75;4.05;;;;;;;;;;5866175;28;20052;-72
2023/11/17 00:46:33;;;;;;;5.22;4.72;;;;;;;;;;5866176;28;20045;-72
2023/11/17 00:49:25;;;;;;;8.88;4.47;;;;;;;;;;5866137;28;20512;-72
2023/11/17 00:52:16;;;;;;;7.45;4.85;;;;;;;;;;5866063;28;20041;-72
2023/11/17 00:55:07;;;;;;;4.70;4.22;;;;;;;;;;5866065;28;20515;-72
2023/11/17 00:57:58;;;;;;;5.15;3.50;;;;;;;;;;5866339;28;20132;-72
2023/11/17 01:00:50;;;;;;;6.85;3.53;;;;;;;;;;5866118;28;20099;-72
2023/11/17 01:03:41;;;;;;;10.27;4.72;;;;;;;;;;5877647;28;20131;-72
2023/11/17 01:06:33;;;;;;;5.72;3.70;;;;;;;;;;5865691;28;20045;-72
2023/11/17 01:09:25;;;;;;;5.38;4.85;;;;;;;;;;5865983;28;20049;-72
2023/11/17 01:12:15;;;;;;;4.32;3.72;;;;;;;;;;5865585;28;20042;-72
2023/11/17 01:15:07;;;;;;;7.05;4.65;;;;;;;;;;5865630;28;20135;-72
2023/11/17 01:17:58;;;;;;;8.88;5.68;;;;;;;;;;5866048;28;20041;-72
2023/11/17 01:20:49;;;;;;;10.85;4.55;;;;;;;;;;5865646;28;20188;-72
2023/11/17 01:23:40;;;;;;;9.05;5.63;;;;;;;;;;5865420;28;20050;-72
2023/11/17 01:26:31;;;;;;;4.25;3.85;;;;;;;;;;5865553;28;20049;-72
2023/11/17 01:29:22;;;;;;;31.38;4.95;;;;;;;;;;5865146;28;20411;-72
2023/11/17 01:32:13;;;;;;;6.43;5.18;;;;;;;;;;5865109;28;20049;-72
2023/11/17 01:35:04;;;;;;;6.97;5.38;;;;;;;;;;5865093;28;20056;-72
2023/11/17 01:37:55;;;;;;;8.35;5.82;;;;;;;;;;5865552;28;20387;-72
2023/11/17 01:40:46;;;;;;;8.95;4.57;;;;;;;;;;5863861;28;20041;-72
2023/11/17 01:43:37;;;;;;;5.55;4.85;;;;;;;;;;5864995;28;20049;-72
2023/11/17 01:46:28;;;;;;;5.40;3.83;;;;;;;;;;5864504;28;20053;-72
2023/11/17 01:49:21;;;;;;;5.30;4.80;;;;;;;;;;5864682;28;20049;-72
2023/11/17 01:52:13;;;;;;;8.18;3.95;;;;;;;;;;5864672;28;20065;-72
2023/11/17 01:55:07;;;;;;;12.70;4.65;;;;;;;;;;5864767;28;20447;-72
2023/11/17 01:58:01;;;;;;;6.35;4.40;;;;;;;;;;5865076;28;20053;-72
2023/11/17 02:00:54;;;;;;;6.05;4.28;;;;;;;;;;5864880;28;20037;-72
2023/11/17 02:03:45;;;;;;;19.98;5.45;;;;;;;;;;5864409;28;20045;-72
2023/11/17 02:06:45;;;;;;;5.40;3.58;;;;;;;;;;5864414;28;20057;-72
2023/11/17 02:10:00;;;;;;;6.35;4.43;;;;;;;;;;5864517;28;20046;-72
2023/11/17 02:13:10;;;;;;;5.55;3.90;;;;;;;;;;5864394;28;20053;-72
2023/11/17 02:16:02;;;;;;;5.82;4.43;;;;;;;;;;5862628;28;20132;-72
2023/11/17 02:18:59;;;;;;;4.47;4.07;;;;;;;;;;5863465;28;20053;-72
2023/11/17 02:21:51;;;;;;;3.33;3.00;;;;;;;;;;5864139;28;20457;-72
2023/11/17 02:24:59;;;;;;;7.97;4.70;;;;;;;;;;5862909;28;20410;-72
2023/11/17 02:28:34;;;;;;;7.67;5.27;;;;;;;;;;5862931;28;20095;-72
2023/11/17 02:31:35;;;;;;;4.38;3.97;;;;;;;;;;5862560;28;20273;-72
2023/11/17 02:34:28;;;;;;;5.60;4.18;;;;;;;;;;5864255;28;20055;-72
2023/11/17 02:37:26;;;;;;;7.40;5.03;;;;;;;;;;5863655;28;20056;-72
2023/11/17 02:40:22;;;;;;;4.80;3.78;;;;;;;;;;5863692;28;20041;-72
2023/11/17 02:43:13;;;;;;;6.85;5.28;;;;;;;;;;5863579;28;20522;-72
2023/11/17 02:46:04;;;;;;;6.68;4.72;;;;;;;;;;5863732;28;20138;-72
2023/11/17 02:48:55;;;;;;;6.93;4.80;;;;;;;;;;5862665;28;20041;-72
2023/11/17 02:51:51;;;;;;;4.97;3.95;;;;;;;;;;5863459;28;20054;-72
2023/11/17 02:54:43;;;;;;;9.55;4.95;;;;;;;;;;5863584;28;20068;-72
2023/11/17 02:57:35;;;;;;;4.57;4.10;;;;;;;;;;5862380;28;20046;-72
2023/11/17 03:00:26;;;;;;;5.88;4.45;;;;;;;;;;5863470;28;20096;-72
2023/11/17 03:03:23;;;;;;;7.80;4.82;;;;;;;;;;5863500;28;20041;-72
2023/11/17 03:06:14;;;;;;;5.35;4.85;;;;;;;;;;5863522;28;20050;-72
2023/11/17 03:09:06;;;;;;;4.70;3.30;;;;;;;;;;5863213;28;20053;-72
2023/11/17 03:11:59;;;;;;;8.95;4.82;;;;;;;;;;5863417;28;20049;-72
2023/11/17 03:14:53;;;;;;;6.70;5.07;;;;;;;;;;5863265;28;20564;-72
2023/11/17 03:17:44;;;;;;;4.80;3.40;;;;;;;;;;5862693;28;20042;-72
2023/11/17 03:20:36;;;;;;;6.28;4.00;;;;;;;;;;5863119;28;20060;-72
2023/11/17 03:23:26;;;;;;;9.82;4.97;;;;;;;;;;5861502;28;20049;-72
2023/11/17 03:26:17;;;;;;;14.13;4.75;;;;;;;;;;5862681;28;20045;-72
2023/11/17 03:29:11;;;;;;;5.63;4.13;;;;;;;;;;5862898;28;20054;-72
2023/11/17 03:32:02;;;;;;;7.05;4.88;;;;;;;;;;5862853;28;20490;-72
2023/11/17 03:34:53;;;;;;;6.80;3.10;;;;;;;;;;5863268;28;20470;-72
2023/11/17 03:37:46;;;;;;;4.72;3.55;;;;;;;;;;5862538;28;20045;-72
2023/11/17 03:40:37;;;;;;;3.85;3.42;;;;;;;;;;5862653;28;20494;-72
2023/11/17 03:43:27;;;;;;;8.60;4.72;;;;;;;;;;5861162;28;20056;-72
2023/11/17 03:46:18;;;;;;;5.60;3.25;;;;;;;;;;5862536;28;20049;-72
2023/11/17 03:49:11;;;;;;;3.53;2.47;;;;;;;;;;5862700;28;20363;-72
2023/11/17 03:52:03;;;;;;;4.60;3.83;;;;;;;;;;5862487;28;20049;-72
2023/11/17 03:54:56;;;;;;;3.97;3.58;;;;;;;;;;5862999;28;20053;-72
2023/11/17 03:57:48;;;;;;;4.85;3.25;;;;;;;;;;5862832;28;20041;-72
2023/11/17 04:00:39;;;;;;;3.17;2.67;;;;;;;;;;5862714;28;20111;-72
2023/11/17 04:03:31;;;;;;;6.22;3.45;;;;;;;;;;5862248;28;20572;-72
2023/11/17 04:06:22;;;;;;;3.33;3.05;;;;;;;;;;5862262;28;20050;-72
2023/11/17 04:09:15;;;;;;;7.10;2.63;;;;;;;;;;5865918;28;20396;-72
2023/11/17 04:12:09;;;;;;;3.60;2.55;;;;;;;;;;5866801;28;20041;-72
2023/11/17 04:15:01;;;;;;;5.15;2.33;;;;;;;;;;5867377;28;20049;-72
2023/11/17 04:17:57;;;;;;;7.00;3.65;;;;;;;;;;5867087;28;20046;-72
2023/11/17 04:20:48;;;;;;;5.07;3.10;;;;;;;;;;5866728;28;20073;-72
2023/11/17 04:23:39;;;;;;;4.35;1.80;;;;;;;;;;5866893;28;20050;-72
2023/11/17 04:26:30;;;;;;;4.20;3.15;;;;;;;;;;5866532;28;20067;-72
2023/11/17 04:29:21;;;;;;;4.32;2.58;;;;;;;;;;5866597;28;20161;-73
2023/11/17 04:32:12;;;;;;;3.90;3.28;;;;;;;;;;5866599;28;20395;-72
2023/11/17 04:35:04;;;;;;;3.53;2.38;;;;;;;;;;5866585;28;20045;-72
2023/11/17 04:37:55;;;;;;;4.72;3.38;;;;;;;;;;5866908;28;20053;-72
2023/11/17 04:40:47;;;;;;;5.28;2.15;;;;;;;;;;5866277;28;20045;-72
2023/11/17 04:43:37;;;;;;;3.78;2.72;;;;;;;;;;5866452;28;20491;-72
2023/11/17 04:46:28;;;;;;;5.82;2.83;;;;;;;;;;5866278;28;20056;-72
2023/11/17 04:49:19;;;;;;;2.38;1.67;;;;;;;;;;5866203;28;20060;-72
2023/11/17 04:52:10;;;;;;;2.22;1.98;;;;;;;;;;5866294;28;20494;-72
2023/11/17 04:55:05;;;;;;;2.17;1.80;;;;;;;;;;5865944;28;20077;-72
2023/11/17 04:57:56;;;;;;;4.25;2.63;;;;;;;;;;5866493;28;20128;-72
2023/11/17 05:00:47;;;;;;;3.90;2.42;;;;;;;;;;5865720;28;20220;-72
2023/11/17 05:03:40;;;;;;;3.65;3.13;;;;;;;;;;5864486;28;20068;-72
2023/11/17 05:06:31;;;;;;;2.95;1.85;;;;;;;;;;5865668;28;20148;-72
2023/11/17 05:09:21;;;;;;;2.25;1.98;;;;;;;;;;5865482;28;20072;-72
2023/11/17 05:12:13;;;;;;;1.67;1.40;;;;;;;;;;5865639;28;20132;-72
2023/11/17 05:15:07;;;;;;;1.70;1.60;;;;;;;;;;5865411;28;20049;-72
2023/11/17 05:17:58;;;;;;;2.53;2.08;;;;;;;;;;5865906;28;20556;-72
2023/11/17 05:20:49;;;;;;;3.67;2.60;;;;;;;;;;5864677;28;20042;-72
2023/11/17 05:23:39;;;;;;;2.25;1.83;;;;;;;;;;5865504;28;20042;-72
2023/11/17 05:26:30;;;;;;;3.38;1.77;;;;;;;;;;5865080;28;20045;-72
2023/11/17 05:29:22;;;;;;;1.30;1.20;;;;;;;;;;5865254;28;20064;-72
2023/11/17 05:32:12;;;;;;;1.27;1.17;;;;;;;;;;5865030;28;20045;-72
2023/11/17 05:35:05;;;;;;;0.98;0.98;;;;;;;;;;5865108;28;20049;-72
2023/11/17 05:37:56;;;;;;;3.47;2.05;;;;;;;;;;5865394;28;20069;-72
2023/11/17 05:40:47;;;;;;;8.10;2.05;;;;;;;;;;5865103;28;20041;-72
2023/11/17 05:43:42;;;;;;;1.25;1.15;;;;;;;;;;5865097;28;20517;-72
2023/11/17 05:46:33;;;;;;;1.80;1.65;;;;;;;;;;5863555;28;20432;-72
2023/11/17 05:49:24;;;;;;;1.27;1.17;;;;;;;;;;5864888;28;20052;-72
2023/11/17 05:52:16;;;;;;;2.83;2.00;;;;;;;;;;5864620;28;20088;-72
2023/11/17 05:55:07;;;;;;;4.63;1.67;;;;;;;;;;5864873;28;20570;-72
2023/11/17 05:57:58;;;;;;;2.42;1.77;;;;;;;;;;5864955;28;20124;-72
2023/11/17 06:00:49;;;;;;;2.78;1.52;;;;;;;;;;5863400;28;20132;-72
2023/11/17 06:03:41;;;;;;;3.05;1.52;;;;;;;;;;5864689;28;20155;-72
2023/11/17 06:06:31;;;;;;;1.50;1.40;;;;;;;;;;5864215;28;20053;-72
2023/11/17 06:09:22;;;;;;;4.20;1.45;;;;;;;;;;5864351;28;20422;-72
2023/11/17 06:12:15;;;;;;;1.67;1.58;;;;;;;;;;5864200;28;20049;-72
2023/11/17 06:15:06;;;;;;;2.22;1.40;;;;;;;;;;5864438;28;20063;-72
2023/11/17 06:17:57;;;;;;;1.75;1.25;;;;;;;;;;5864396;28;20585;-72
2023/11/17 06:20:49;;;;;;;1.73;1.15;;;;;;;;;;5864156;28;20534;-72
2023/11/17 06:23:40;;;;;;;1.55;1.20;;;;;;;;;;5863944;28;20069;-72
2023/11/17 06:26:30;;;;;;;2.13;1.65;;;;;;;;;;5864043;28;20415;-72
2023/11/17 06:29:22;;;;;;;2.63;1.30;;;;;;;;;;5863772;28;20056;-72
2023/11/17 06:32:13;;;;;;;1.40;1.13;;;;;;;;;;5863620;28;20041;-72
2023/11/17 06:35:05;;;;;;;1.40;1.02;;;;;;;;;;5863889;28;20136;-72
2023/11/17 06:37:57;;;;;;;1.13;1.08;;;;;;;;;;5864064;28;20037;-72
2023/11/17 06:40:48;;;;;;;2.60;1.60;;;;;;;;;;5863629;28;20046;-72
2023/11/17 06:43:39;;;;;;;1.60;1.00;;;;;;;;;;5863493;28;20049;-72
2023/11/17 06:46:30;;;;;;;2.58;1.75;;;;;;;;;;5863537;28;20053;-72
2023/11/17 06:49:24;;;;;;;2.95;1.27;;;;;;;;;;5863427;28;20049;-72
2023/11/17 06:52:15;;;;;;;0.88;0.88;;;;;;;;;;5863170;28;20442;-72
2023/11/17 06:55:07;;;;;;;0.75;0.65;;;;;;;;;;5863439;28;20041;-72
2023/11/17 06:57:58;;;;;;;1.45;1.17;;;;;;;;;;5863765;28;20050;-72
2023/11/17 07:00:49;;;;;;;1.50;1.10;;;;;;;;;;5863180;28;20124;-72
2023/11/17 07:03:42;;;;;;;1.23;0.88;;;;;;;;;;5863487;28;20418;-72
2023/11/17 07:06:34;;;;;;;2.90;1.42;;;;;;;;;;5863177;28;20053;-72
2023/11/17 07:09:30;;;;;;;1.13;1.05;;;;;;;;;;5863123;28;20060;-72
2023/11/17 07:12:21;;;;;;;1.48;1.35;;;;;;;;;;5862752;28;20060;-72
2023/11/17 07:15:17;;;;;;;1.90;1.67;;;;;;;;;;5862979;28;20057;-72
2023/11/17 07:18:08;;;;;;;2.42;2.15;;;;;;;;;;5862759;28;20046;-72
2023/11/17 07:20:59;;;;;;;7.25;3.80;;;;;;;;;;5863304;28;20045;-72
2023/11/17 07:23:50;;;;;;;5.50;1.90;;;;;;;;;;5863091;28;20045;-73
2023/11/17 07:26:41;;;;;;;6.05;3.28;;;;;;;;;;5862721;28;20037;-73
2023/11/17 07:29:32;;;;;;;2.90;2.67;;;;;;;;;;5862731;28;20079;-73
2023/11/17 07:32:23;;;;;;;4.03;2.65;;;;;;;;;;5862675;28;20049;-73
2023/11/17 07:35:14;;;;;;;1.98;1.83;;;;;;;;;;5862857;28;20049;-73
2023/11/17 07:38:05;;;;;;;2.75;1.80;;;;;;;;;;5862573;28;20064;-73
2023/11/17 07:40:56;;;;;;;1.45;1.35;;;;;;;;;;5863141;28;20056;-73
2023/11/17 07:43:47;;;;;;;2.17;1.98;;;;;;;;;;5862071;28;20410;-73
2023/11/17 07:46:38;;;;;;;3.25;2.95;;;;;;;;;;5862284;28;20041;-73
2023/11/17 07:49:30;;;;;;;4.45;3.08;;;;;;;;;;5861343;28;20053;-73
2023/11/17 07:52:23;;;;;;;16.98;2.90;;;;;;;;;;5870294;28;20060;-73
2023/11/17 07:55:13;;;;;;;1.88;1.65;;;;;;;;;;5872531;28;20099;-73
2023/11/17 07:58:05;;;;;;;1.58;1.48;;;;;;;;;;5870995;28;20172;-72
2023/11/17 08:00:58;;;;;;;6.60;2.10;;;;;;;;;;5862757;28;20049;-72
2023/11/17 08:03:48;;;;;;;1.70;1.52;;;;;;;;;;5862739;28;20045;-72
2023/11/17 08:06:39;;;;;;;2.28;1.85;;;;;;;;;;5863035;28;20167;-72
2023/11/17 08:09:33;;;;;;;3.70;3.33;;;;;;;;;;5864641;28;20052;-73
2023/11/17 08:12:24;;;;;;;1.95;1.75;;;;;;;;;;5861311;28;20049;-73
2023/11/17 08:15:16;;;;;;;2.55;2.20;;;;;;;;;;5862338;28;20045;-73
2023/11/17 08:18:10;;;;;;;2.92;1.15;;;;;;;;;;5862001;28;20050;-72
2023/11/17 08:21:03;;;;;;;1.63;1.52;;;;;;;;;;5856161;28;20049;-72
2023/11/17 08:23:54;;;;;;;4.25;3.10;;;;;;;;;;5865297;28;20129;-72
2023/11/17 08:26:46;;;;;;;4.65;3.55;;;;;;;;;;5880599;28;20044;-73
2023/11/17 08:29:36;;;;;;;2.70;2.22;;;;;;;;;;5882737;28;20052;-73
2023/11/17 08:32:27;;;;;;;1.20;1.10;;;;;;;;;;5882900;28;20045;-73
2023/11/17 08:35:18;;;;;;;4.30;1.90;;;;;;;;;;5860103;28;20260;-73
2023/11/17 08:38:09;;;;;;;2.55;1.02;;;;;;;;;;5859347;28;20359;-73
2023/11/17 08:41:00;;;;;;;8.45;3.72;;;;;;;;;;5860710;28;20045;-73
2023/11/17 08:43:53;;;;;;;6.10;2.10;;;;;;;;;;5862444;28;20037;-73
2023/11/17 08:46:44;;;;;;;2.00;0.82;;;;;;;;;;5862272;28;20099;-73
2023/11/17 08:49:36;;;;;;;1.40;1.25;;;;;;;;;;5861790;28;20410;-73
2023/11/17 08:52:33;;;;;;;1.83;1.73;;;;;;;;;;5861634;28;20087;-73
2023/11/17 08:55:27;;;;;;;2.20;2.03;;;;;;;;;;5864242;28;20072;-72
2023/11/17 08:58:20;;;;;;;1.90;1.27;;;;;;;;;;5865784;28;20053;-73
2023/11/17 09:01:12;;;;;;;0.82;0.82;;;;;;;;;;5865990;28;20049;-73
2023/11/17 09:04:03;;;;;;;1.85;1.20;;;;;;;;;;5866098;28;20077;-73
2023/11/17 09:06:54;;;;;;;1.30;1.20;;;;;;;;;;5866486;28;20054;-73
2023/11/17 09:09:48;;;;;;;1.60;1.50;;;;;;;;;;5865339;28;20049;-73
2023/11/17 09:12:42;;;;;;;2.80;1.80;;;;;;;;;;5865573;28;20057;-73
2023/11/17 09:15:38;;;;;;;1.63;1.23;;;;;;;;;;5866215;28;20045;-73
2023/11/17 09:18:31;;;;;;;1.60;1.23;;;;;;;;;;5865167;28;20052;-73
2023/11/17 09:21:24;;;;;;;3.45;1.50;;;;;;;;;;5865653;28;20124;-73
2023/11/17 09:24:14;;;;;;;1.98;1.80;;;;;;;;;;5865275;28;20061;-73
2023/11/17 09:27:07;;;;;;;5.35;1.95;;;;;;;;;;5865602;28;20050;-73
2023/11/17 09:29:59;;;;;;;5.35;2.92;;;;;;;;;;5865715;28;20053;-72
2023/11/17 09:32:55;;;;;;;2.63;1.45;;;;;;;;;;5865173;28;20037;-72
2023/11/17 09:35:48;;;;;;;3.65;2.95;;;;;;;;;;5864299;28;20048;-72
2023/11/17 09:38:41;;;;;;;3.63;1.60;;;;;;;;;;5864274;28;20046;-72
2023/11/17 09:41:33;;;;;;;1.95;1.73;;;;;;;;;;5865188;28;20528;-72
2023/11/17 09:44:27;;;;;;;1.90;1.80;;;;;;;;;;5865364;28;20488;-72
2023/11/17 09:47:25;;;;;;;4.15;2.78;;;;;;;;;;5864862;28;20037;-72
2023/11/17 09:50:18;;;;;;;4.50;2.47;;;;;;;;;;5878069;28;20048;-72
2023/11/17 09:53:13;;;;;;;2.03;1.83;;;;;;;;;;5886350;28;20595;-72
2023/11/17 09:56:09;;;;;;;3.45;2.22;;;;;;;;;;5888476;28;20194;-72
2023/11/17 09:59:01;;;;;;;31.63;14.15;;;;;;;;;;5886806;28;20518;-72
2023/11/17 10:01:56;;;;;;;6.95;5.55;;;;;;;;;;5887519;28;20518;-72
2023/11/17 10:04:50;;;;;;;3.88;2.80;;;;;;;;;;5868258;28;20069;-72
2023/11/17 10:07:50;;;;;;;4.45;2.47;;;;;;;;;;5866954;28;20452;-73
2023/11/17 10:10:48;;;;;;;4.20;2.78;;;;;;;;;;5887724;28;20063;-72
2023/11/17 10:13:40;;;;;;;2.63;2.08;;;;;;;;;;5877758;28;20053;-72
2023/11/17 10:16:32;;;;;;;2.67;2.15;;;;;;;;;;5863156;28;20065;-72
2023/11/17 10:19:25;;;;;;;3.50;2.75;;;;;;;;;;5863909;28;20056;-72
2023/11/17 10:22:16;;;;;;;4.78;1.73;;;;;;;;;;5879596;28;20052;-73
2023/11/17 10:25:10;;;;;;;2.45;2.25;;;;;;;;;;5863884;28;20068;-72
2023/11/17 10:28:05;;;;;;;2.08;1.70;;;;;;;;;;5863021;28;20048;-73
2023/11/17 10:31:05;;;;;;;2.35;2.15;;;;;;;;;;5864419;28;20128;-72
2023/11/17 10:34:00;;;;;;;2.63;2.25;;;;;;;;;;5863201;28;20043;-72
2023/11/17 10:36:56;;;;;;;3.38;2.58;;;;;;;;;;5846842;28;20041;-72
2023/11/17 10:39:49;;;;;;;2.60;2.40;;;;;;;;;;5863656;28;20064;-73
2023/11/17 10:43:09;;;;;;;2.88;2.60;;;;;;;;;;5862818;28;20038;-72
2023/11/17 10:46:00;;;;;;;3.95;2.70;;;;;;;;;;5863056;28;20038;-73
2023/11/17 10:48:55;;;;;;;5.05;2.35;;;;;;;;;;5862055;28;20056;-73
2023/11/17 10:51:50;;;;;;;3.90;2.65;;;;;;;;;;5881437;28;20428;-74
2023/11/17 10:54:47;;;;;;;5.35;2.65;;;;;;;;;;5866536;28;20188;-73
2023/11/17 10:57:40;;;;;;;5.68;2.42;;;;;;;;;;5863616;28;20053;-74
2023/11/17 11:00:33;;;;;;;6.00;3.47;;;;;;;;;;5863430;28;20411;-73
2023/11/17 11:03:29;;;;;;;3.80;3.05;;;;;;;;;;5863403;28;20045;-73
2023/11/17 11:06:20;;;;;;;9.98;5.75;;;;;;;;;;5863564;28;20064;-73
2023/11/17 11:09:19;;;;;;;4.30;3.90;;;;;;;;;;5862749;28;20128;-73
2023/11/17 11:12:13;;;;;;;5.18;4.13;;;;;;;;;;5863180;28;20049;-73
2023/11/17 11:15:05;;;;;;;8.20;4.93;;;;;;;;;;5862955;28;20055;-73
2023/11/17 11:17:58;;;;;;;8.82;3.95;;;;;;;;;;5862794;28;20045;-73
2023/11/17 11:20:49;;;;;;;8.15;3.58;;;;;;;;;;5863109;28;20045;-73
2023/11/17 11:23:40;;;;;;;9.45;6.10;;;;;;;;;;5862764;28;20074;-73
2023/11/17 11:26:32;;;;;;;6.95;6.25;;;;;;;;;;5861894;28;20084;-74
2023/11/17 11:29:24;;;;;;;8.30;4.68;;;;;;;;;;5862327;28;20068;-73
2023/11/17 11:32:16;;;;;;;12.90;5.65;;;;;;;;;;5882962;28;20044;-73
2023/11/17 11:35:07;;;;;;;7.65;4.90;;;;;;;;;;5884426;28;20529;-73
2023/11/17 11:37:58;;;;;;;6.95;5.40;;;;;;;;;;5885550;28;20049;-73
2023/11/17 11:40:52;;;;;;;5.82;4.57;;;;;;;;;;5885733;28;20531;-73
2023/11/17 11:43:46;;;;;;;7.03;5.10;;;;;;;;;;5865458;28;20561;-73
2023/11/17 11:46:37;;;;;;;8.70;5.47;;;;;;;;;;5876058;28;20044;-73
2023/11/17 11:49:29;;;;;;;5.85;4.50;;;;;;;;;;5869663;28;20060;-73
2023/11/17 11:52:29;;;;;;;3.72;3.42;;;;;;;;;;5885907;28;20053;-73
2023/11/17 11:55:21;;;;;;;3.15;2.58;;;;;;;;;;5878699;28;20064;-74
2023/11/17 11:58:13;;;;;;;5.75;2.58;;;;;;;;;;5878602;28;20056;-76
2023/11/17 12:01:06;;;;;;;3.78;3.00;;;;;;;;;;5862186;28;20084;-73
2023/11/17 12:04:13;;;;;;;3.17;2.85;;;;;;;;;;5862703;28;20487;-74
2023/11/17 12:07:33;;;;;;;4.85;3.90;;;;;;;;;;5862277;28;20046;-73
2023/11/17 12:10:25;;;;;;;5.80;3.10;;;;;;;;;;5873435;28;20041;-77
2023/11/17 12:13:36;;;;;;;4.63;3.63;;;;;;;;;;5884766;28;20045;-73
2023/11/17 12:16:29;;;;;;;4.72;4.03;;;;;;;;;;5885655;28;20576;-73
2023/11/17 12:19:32;;;;;;;10.85;6.28;;;;;;;;;;5869679;28;20063;-73
2023/11/17 12:22:24;;;;;;;10.18;6.32;;;;;;;;;;5861017;28;20057;-74
2023/11/17 12:25:18;;;;;;;8.38;3.97;;;;;;;;;;5875734;28;20118;-74
2023/11/17 12:28:10;;;;;;;8.98;7.32;;;;;;;;;;5879846;28;20491;-74
2023/11/17 12:31:00;;;;;;;4.63;3.85;;;;;;;;;;5865272;28;20072;-74
2023/11/17 12:33:54;;;;;;;7.60;4.88;;;;;;;;;;5866727;28;20503;-73
2023/11/17 12:36:46;;;;;;;18.80;9.63;;;;;;;;;;5866984;28;20041;-73
2023/11/17 12:39:41;;;;;;;21.48;8.75;;;;;;;;;;5865109;28;20522;-73
2023/11/17 12:42:31;;;;;;;6.55;5.65;;;;;;;;;;5866397;28;20050;-73
2023/11/17 12:45:24;;;;;;;7.70;4.07;;;;;;;;;;5866453;28;20049;-74
2023/11/17 12:48:17;;;;;;;15.52;7.35;;;;;;;;;;5881303;28;20111;-73
2023/11/17 12:51:08;;;;;;;10.32;8.48;;;;;;;;;;5866282;28;20052;-73
2023/11/17 12:54:01;;;;;;;6.82;5.03;;;;;;;;;;5866221;28;20503;-73
2023/11/17 12:56:51;;;;;;;7.68;4.80;;;;;;;;;;5866484;28;20175;-73
2023/11/17 12:59:42;;;;;;;3.55;2.97;;;;;;;;;;5866243;28;20046;-73
2023/11/17 13:02:33;;;;;;;8.57;4.55;;;;;;;;;;5882260;28;20056;-75
2023/11/17 13:05:24;;;;;;;7.43;6.20;;;;;;;;;;5888935;28;20120;-73
2023/11/17 13:08:18;;;;;;;10.27;7.00;;;;;;;;;;5888916;28;20048;-73
2023/11/17 13:11:11;;;;;;;8.43;5.43;;;;;;;;;;5887983;28;20045;-72
2023/11/17 13:14:08;;;;;;;14.13;3.65;;;;;;;;;;5888771;28;20045;-73
2023/11/17 13:16:59;;;;;;;4.07;2.70;;;;;;;;;;5889064;28;20049;-73
2023/11/17 13:19:53;;;;;;;4.88;2.78;;;;;;;;;;5888715;28;20040;-73
2023/11/17 13:22:45;;;;;;;2.92;2.65;;;;;;;;;;5886903;28;20052;-72
2023/11/17 13:26:06;;;;;;;7.68;3.75;;;;;;;;;;5888891;28;20048;-73
2023/11/17 13:28:57;;;;;;;5.20;3.42;;;;;;;;;;5887383;28;20131;-72
2023/11/17 13:32:01;;;;;;;2.33;2.00;;;;;;;;;;5888330;28;20716;-73
2023/11/17 13:34:54;;;;;;;4.25;3.35;;;;;;;;;;5888541;28;20418;-73
2023/11/17 13:37:45;;;;;;;6.38;2.85;;;;;;;;;;5887914;28;20051;-75
2023/11/17 13:40:41;;;;;;;7.40;3.60;;;;;;;;;;5887249;28;20048;-73
2023/11/17 13:43:33;;;;;;;4.40;2.58;;;;;;;;;;5887889;28;20045;-72
2023/11/17 13:46:35;;;;;;;4.78;3.58;;;;;;;;;;5887873;28;20525;-73
2023/11/17 13:49:26;;;;;;;3.20;2.90;;;;;;;;;;5886629;28;20494;-74
2023/11/17 13:52:17;;;;;;;3.03;1.95;;;;;;;;;;5887622;28;20049;-74
2023/11/17 13:55:08;;;;;;;3.22;2.97;;;;;;;;;;5887837;28;20636;-73
2023/11/17 13:58:00;;;;;;;13.05;4.22;;;;;;;;;;5888019;28;20053;-73
2023/11/17 14:00:51;;;;;;;3.35;2.60;;;;;;;;;;5887762;28;20057;-72
2023/11/17 14:03:42;;;;;;;4.82;2.63;;;;;;;;;;5887450;28;20384;-72
2023/11/17 14:06:34;;;;;;;2.95;2.67;;;;;;;;;;5887424;28;20110;-74
2023/11/17 14:09:27;;;;;;;4.05;2.70;;;;;;;;;;5887518;28;20048;-73
2023/11/17 14:12:18;;;;;;;3.10;2.53;;;;;;;;;;5887441;28;20585;-74
2023/11/17 14:15:10;;;;;;;3.58;2.10;;;;;;;;;;5887259;28;20041;-72
2023/11/17 14:18:01;;;;;;;3.63;2.28;;;;;;;;;;5886867;28;20048;-73
2023/11/17 14:20:52;;;;;;;4.40;2.67;;;;;;;;;;5887532;28;20132;-75
2023/11/17 14:23:43;;;;;;;4.78;3.10;;;;;;;;;;5886891;28;20045;-72
2023/11/17 14:26:34;;;;;;;2.35;1.95;;;;;;;;;;5887119;28;20116;-73
2023/11/17 14:29:31;;;;;;;4.32;2.53;;;;;;;;;;5885820;28;20053;-72
2023/11/17 14:32:23;;;;;;;10.10;4.07;;;;;;;;;;5887326;28;20049;-72
2023/11/17 14:35:17;;;;;;;4.97;2.90;;;;;;;;;;5887067;28;20465;-73
2023/11/17 14:38:08;;;;;;;3.88;2.47;;;;;;;;;;5886928;28;20194;-73
2023/11/17 14:40:59;;;;;;;4.70;2.65;;;;;;;;;;5887303;28;20060;-73
2023/11/17 14:43:50;;;;;;;5.05;2.63;;;;;;;;;;5886995;28;20517;-72
2023/11/17 14:46:41;;;;;;;4.63;3.22;;;;;;;;;;5886496;28;20135;-72
2023/11/17 14:49:32;;;;;;;3.00;2.70;;;;;;;;;;5886523;28;20056;-73
2023/11/17 14:52:24;;;;;;;4.80;3.15;;;;;;;;;;5901543;28;20048;-72
2023/11/17 14:55:22;;;;;;;4.75;3.83;;;;;;;;;;5886247;28;20134;-73
2023/11/17 14:58:13;;;;;;;2.97;2.33;;;;;;;;;;5886414;28;20056;-73
2023/11/17 15:01:09;;;;;;;8.27;4.85;;;;;;;;;;5886569;28;20052;-73
2023/11/17 15:04:00;;;;;;;7.65;2.75;;;;;;;;;;5886884;28;20128;-72
2023/11/17 15:06:56;;;;;;;4.38;3.60;;;;;;;;;;5886404;28;20049;-73
2023/11/17 15:09:47;;;;;;;3.05;2.80;;;;;;;;;;5885970;28;20045;-72
2023/11/17 15:12:38;;;;;;;3.53;2.28;;;;;;;;;;5885995;28;20554;-73
2023/11/17 15:15:29;;;;;;;7.65;4.10;;;;;;;;;;5885827;28;20055;-73
2023/11/17 15:18:19;;;;;;;4.18;3.22;;;;;;;;;;5885515;28;20061;-73
2023/11/17 15:21:20;;;;;;;2.53;2.33;;;;;;;;;;5885912;28;20516;-72
2023/11/17 15:24:19;;;;;;;2.13;1.52;;;;;;;;;;5886057;28;20064;-73
2023/11/17 15:27:13;;;;;;;2.80;1.50;;;;;;;;;;5885992;28;20536;-73
2023/11/17 15:30:13;;;;;;;3.22;2.80;;;;;;;;;;5885861;28;20048;-72
2023/11/17 15:33:06;;;;;;;2.78;2.22;;;;;;;;;;5885506;28;20052;-72
2023/11/17 15:35:57;;;;;;;4.75;2.13;;;;;;;;;;5886227;28;20045;-72
2023/11/17 15:38:48;;;;;;;3.33;1.83;;;;;;;;;;5884234;28;20052;-72
2023/11/17 15:41:38;;;;;;;4.15;2.97;;;;;;;;;;5885439;28;20048;-74
2023/11/17 15:44:30;;;;;;;3.13;2.38;;;;;;;;;;5885520;28;20048;-73
2023/11/17 15:47:21;;;;;;;4.22;2.08;;;;;;;;;;5885575;28;20135;-73
2023/11/17 15:50:15;;;;;;;3.20;2.67;;;;;;;;;;5885570;28;20553;-73
2023/11/17 15:53:06;;;;;;;2.03;1.80;;;;;;;;;;5885578;28;20111;-72
2023/11/17 15:55:59;;;;;;;4.32;2.83;;;;;;;;;;5886076;28;20045;-73
2023/11/17 15:58:55;;;;;;;5.68;1.90;;;;;;;;;;5885845;28;20045;-72
2023/11/17 16:01:46;;;;;;;4.90;3.45;;;;;;;;;;5874614;28;20045;-73
2023/11/17 16:04:37;;;;;;;8.85;3.60;;;;;;;;;;5865044;28;20060;-73
2023/11/17 16:07:28;;;;;;;2.55;2.30;;;;;;;;;;5866685;28;20056;-73
2023/11/17 16:10:22;;;;;;;2.08;1.73;;;;;;;;;;5866790;28;20059;-72
2023/11/17 16:13:13;;;;;;;4.07;2.15;;;;;;;;;;5881924;28;20052;-73
2023/11/17 16:16:08;;;;;;;8.38;2.83;;;;;;;;;;5866592;28;20045;-73
2023/11/17 16:18:59;;;;;;;4.20;3.80;;;;;;;;;;5867222;28;20049;-73
2023/11/17 16:21:50;;;;;;;4.72;3.33;;;;;;;;;;5866376;28;20049;-73
2023/11/17 16:24:41;;;;;;;7.65;3.15;;;;;;;;;;5866424;28;20056;-73
2023/11/17 16:27:32;;;;;;;2.75;2.13;;;;;;;;;;5866473;28;20068;-73
2023/11/17 16:30:23;;;;;;;10.05;3.00;;;;;;;;;;5866440;28;20415;-72
2023/11/17 16:33:13;;;;;;;5.22;2.42;;;;;;;;;;5866153;28;20052;-73
2023/11/17 16:36:05;;;;;;;4.55;3.25;;;;;;;;;;5866241;28;20063;-73
2023/11/17 16:38:57;;;;;;;5.00;3.58;;;;;;;;;;5866492;28;20180;-73
2023/11/17 16:41:49;;;;;;;6.93;5.07;;;;;;;;;;5865907;28;20056;-73
2023/11/17 16:44:40;;;;;;;7.15;5.40;;;;;;;;;;5865989;28;20389;-73
2023/11/17 16:47:31;;;;;;;6.90;5.63;;;;;;;;;;5866075;28;20046;-73
2023/11/17 16:50:26;;;;;;;4.43;2.47;;;;;;;;;;5865946;28;20518;-73
2023/11/17 16:53:19;;;;;;;3.30;2.47;;;;;;;;;;5865953;28;20041;-73
2023/11/17 16:56:10;;;;;;;4.35;2.90;;;;;;;;;;5865959;28;20052;-73
2023/11/17 16:59:01;;;;;;;3.25;2.03;;;;;;;;;;5865694;28;20069;-73
2023/11/17 17:01:51;;;;;;;3.63;1.90;;;;;;;;;;5866555;28;20050;-73
2023/11/17 17:04:45;;;;;;;1.67;1.48;;;;;;;;;;5865576;28;20052;-73
2023/11/17 17:07:35;;;;;;;3.47;2.05;;;;;;;;;;5865710;28;20049;-73
2023/11/17 17:10:27;;;;;;;2.80;2.05;;;;;;;;;;5865374;28;20049;-73
2023/11/17 17:13:19;;;;;;;2.28;1.55;;;;;;;;;;5865484;28;20053;-73
2023/11/17 17:16:11;;;;;;;3.28;1.58;;;;;;;;;;5863782;28;20041;-73